sensor_id;sensor_type;location;lat;lon;timestamp;pressure;altitude;pressure_sealevel;temperature;humidity
64211;BME280;73293;48.538;14.354;2023-10-19T00:00:13;92586.77;;;4.94;88.32
64211;BME280;73293;48.538;14.354;2023-10-19T00:01:16;92582.26;;;4.91;89.91
64211;BME280;73293;48.538;14.354;2023-10-19T00:01:53;92586.59;;;4.92;89.72
64211;BME280;73293;48.538;14.354;2023-10-19T00:02:38;92590.84;;;4.95;89.98
64211;BME280;73293;48.538;14.354;2023-10-19T00:03:19;92583.30;;;4.87;89.28
64211;BME280;73293;48.538;14.354;2023-10-19T00:03:56;92582.61;;;4.86;89.47
64211;BME280;73293;48.538;14.354;2023-10-19T00:04:42;92591.89;;;4.93;89.18
64211;BME280;73293;48.538;14.354;2023-10-19T00:05:17;92591.08;;;4.92;89.10
64211;BME280;73293;48.538;14.354;2023-10-19T00:06:17;92589.66;;;4.97;90.00
64211;BME280;73293;48.538;14.354;2023-10-19T00:06:56;92586.04;;;4.95;90.14
64211;BME280;73293;48.538;14.354;2023-10-19T00:07:30;92585.75;;;4.97;90.20
64211;BME280;73293;48.538;14.354;2023-10-19T00:08:12;92585.48;;;5.00;89.60
64211;BME280;73293;48.538;14.354;2023-10-19T00:08:46;92585.49;;;5.00;89.53
64211;BME280;73293;48.538;14.354;2023-10-19T00:10:00;92587.88;;;5.05;89.71
64211;BME280;73293;48.538;14.354;2023-10-19T00:10:37;92590.73;;;5.05;89.43
64211;BME280;73293;48.538;14.354;2023-10-19T00:11:11;92591.95;;;5.05;89.43
64211;BME280;73293;48.538;14.354;2023-10-19T00:11:55;92590.02;;;5.05;89.77
64211;BME280;73293;48.538;14.354;2023-10-19T00:12:31;92592.62;;;5.05;89.97
64211;BME280;73293;48.538;14.354;2023-10-19T00:13:34;92588.13;;;5.09;89.81
64211;BME280;73293;48.538;14.354;2023-10-19T00:14:09;92591.02;;;5.07;89.86
64211;BME280;73293;48.538;14.354;2023-10-19T00:14:49;92586.11;;;5.07;89.75
64211;BME280;73293;48.538;14.354;2023-10-19T00:15:26;92587.38;;;5.07;89.83
64211;BME280;73293;48.538;14.354;2023-10-19T00:16:08;92586.65;;;5.07;89.50
64211;BME280;73293;48.538;14.354;2023-10-19T00:17:16;92588.20;;;5.11;89.43
64211;BME280;73293;48.538;14.354;2023-10-19T00:17:55;92590.50;;;5.10;89.36
64211;BME280;73293;48.538;14.354;2023-10-19T00:18:40;92587.77;;;5.09;90.55
64211;BME280;73293;48.538;14.354;2023-10-19T00:19:17;92585.92;;;5.07;90.63
64211;BME280;73293;48.538;14.354;2023-10-19T00:19:55;92584.98;;;5.08;90.47
64211;BME280;73293;48.538;14.354;2023-10-19T00:21:02;92582.69;;;5.11;90.15
64211;BME280;73293;48.538;14.354;2023-10-19T00:21:54;92578.14;;;5.09;90.00
64211;BME280;73293;48.538;14.354;2023-10-19T00:22:49;92575.42;;;5.09;90.27
64211;BME280;73293;48.538;14.354;2023-10-19T00:23:25;92576.46;;;5.09;90.37
64211;BME280;73293;48.538;14.354;2023-10-19T00:24:42;92573.34;;;5.13;90.69
64211;BME280;73293;48.538;14.354;2023-10-19T00:25:17;92572.03;;;5.12;90.76
64211;BME280;73293;48.538;14.354;2023-10-19T00:25:52;92569.95;;;5.13;90.84
64211;BME280;73293;48.538;14.354;2023-10-19T00:26:27;92562.56;;;5.13;90.66
64211;BME280;73293;48.538;14.354;2023-10-19T00:27:04;92556.80;;;5.16;90.12
64211;BME280;73293;48.538;14.354;2023-10-19T00:28:18;92549.91;;;5.20;89.24
64211;BME280;73293;48.538;14.354;2023-10-19T00:28:52;92557.66;;;5.18;90.88
64211;BME280;73293;48.538;14.354;2023-10-19T00:29:44;92554.88;;;5.16;91.11
64211;BME280;73293;48.538;14.354;2023-10-19T00:30:28;92554.09;;;5.15;90.51
64211;BME280;73293;48.538;14.354;2023-10-19T00:31:05;92554.56;;;5.16;90.37
64211;BME280;73293;48.538;14.354;2023-10-19T00:32:11;92558.73;;;5.20;89.79
64211;BME280;73293;48.538;14.354;2023-10-19T00:32:49;92554.02;;;5.18;89.80
64211;BME280;73293;48.538;14.354;2023-10-19T00:33:25;92560.16;;;5.19;89.59
64211;BME280;73293;48.538;14.354;2023-10-19T00:34:01;92556.95;;;5.19;89.66
64211;BME280;73293;48.538;14.354;2023-10-19T00:34:37;92549.81;;;5.16;90.09
64211;BME280;73293;48.538;14.354;2023-10-19T00:35:49;92539.87;;;5.25;89.47
64211;BME280;73293;48.538;14.354;2023-10-19T00:36:34;92530.39;;;5.20;90.96
64211;BME280;73293;48.538;14.354;2023-10-19T00:37:08;92533.70;;;5.20;91.75
64211;BME280;73293;48.538;14.354;2023-10-19T00:37:46;92533.30;;;5.18;91.50
64211;BME280;73293;48.538;14.354;2023-10-19T00:38:23;92532.67;;;5.18;91.20
64211;BME280;73293;48.538;14.354;2023-10-19T00:39:24;92533.83;;;5.20;90.84
64211;BME280;73293;48.538;14.354;2023-10-19T00:39:58;92533.49;;;5.19;90.35
64211;BME280;73293;48.538;14.354;2023-10-19T00:40:51;92533.14;;;5.20;90.13
64211;BME280;73293;48.538;14.354;2023-10-19T00:41:27;92534.82;;;5.21;90.21
64211;BME280;73293;48.538;14.354;2023-10-19T00:42:04;92532.63;;;5.20;90.42
64211;BME280;73293;48.538;14.354;2023-10-19T00:42:40;92534.02;;;5.23;90.38
64211;BME280;73293;48.538;14.354;2023-10-19T00:43:35;92530.02;;;5.25;90.30
64211;BME280;73293;48.538;14.354;2023-10-19T00:44:11;92524.88;;;5.23;90.64
64211;BME280;73293;48.538;14.354;2023-10-19T00:44:48;92527.16;;;5.26;91.80
64211;BME280;73293;48.538;14.354;2023-10-19T00:45:29;92525.89;;;5.29;92.13
64211;BME280;73293;48.538;14.354;2023-10-19T00:46:05;92528.78;;;5.27;92.79
64211;BME280;73293;48.538;14.354;2023-10-19T00:47:14;92527.67;;;5.30;92.69
64211;BME280;73293;48.538;14.354;2023-10-19T00:47:51;92531.16;;;5.30;92.68
64211;BME280;73293;48.538;14.354;2023-10-19T00:48:31;92533.50;;;5.24;92.62
64211;BME280;73293;48.538;14.354;2023-10-19T00:49:10;92530.55;;;5.20;92.30
64211;BME280;73293;48.538;14.354;2023-10-19T00:49:50;92533.32;;;5.21;92.45
64211;BME280;73293;48.538;14.354;2023-10-19T00:51:04;92526.89;;;5.25;92.50
64211;BME280;73293;48.538;14.354;2023-10-19T00:51:49;92523.55;;;5.23;92.35
64211;BME280;73293;48.538;14.354;2023-10-19T00:52:50;92516.14;;;5.23;92.25
64211;BME280;73293;48.538;14.354;2023-10-19T00:53:44;92512.61;;;5.25;92.91
64211;BME280;73293;48.538;14.354;2023-10-19T00:54:20;92511.43;;;5.27;92.93
64211;BME280;73293;48.538;14.354;2023-10-19T00:55:12;92512.84;;;5.26;93.65
64211;BME280;73293;48.538;14.354;2023-10-19T00:55:53;92511.08;;;5.22;94.19
64211;BME280;73293;48.538;14.354;2023-10-19T00:56:30;92507.58;;;5.20;93.09
64211;BME280;73293;48.538;14.354;2023-10-19T00:57:07;92514.52;;;5.24;92.72
64211;BME280;73293;48.538;14.354;2023-10-19T00:57:45;92516.10;;;5.24;92.38
64211;BME280;73293;48.538;14.354;2023-10-19T00:58:59;92514.75;;;5.24;92.51
64211;BME280;73293;48.538;14.354;2023-10-19T00:59:38;92512.96;;;5.23;92.29
64211;BME280;73293;48.538;14.354;2023-10-19T01:00:24;92510.62;;;5.24;92.25
64211;BME280;73293;48.538;14.354;2023-10-19T01:01:05;92509.48;;;5.25;92.29
64211;BME280;73293;48.538;14.354;2023-10-19T01:01:40;92506.98;;;5.25;92.67
64211;BME280;73293;48.538;14.354;2023-10-19T01:02:49;92500.60;;;5.27;92.56
64211;BME280;73293;48.538;14.354;2023-10-19T01:03:42;92497.98;;;5.26;92.69
64211;BME280;73293;48.538;14.354;2023-10-19T01:04:28;92495.02;;;5.26;92.73
64211;BME280;73293;48.538;14.354;2023-10-19T01:05:13;92498.52;;;5.27;93.25
64211;BME280;73293;48.538;14.354;2023-10-19T01:05:49;92494.46;;;5.27;92.92
64211;BME280;73293;48.538;14.354;2023-10-19T01:06:45;92496.16;;;5.36;92.60
64211;BME280;73293;48.538;14.354;2023-10-19T01:07:33;92498.98;;;5.32;92.51
64211;BME280;73293;48.538;14.354;2023-10-19T01:08:15;92498.44;;;5.31;92.64
64211;BME280;73293;48.538;14.354;2023-10-19T01:09:00;92494.85;;;5.30;92.50
64211;BME280;73293;48.538;14.354;2023-10-19T01:09:35;92495.27;;;5.31;92.33
64211;BME280;73293;48.538;14.354;2023-10-19T01:10:24;92492.32;;;5.34;92.66
64211;BME280;73293;48.538;14.354;2023-10-19T01:11:02;92494.85;;;5.31;92.35
64211;BME280;73293;48.538;14.354;2023-10-19T01:11:38;92495.48;;;5.32;92.22
64211;BME280;73293;48.538;14.354;2023-10-19T01:12:12;92491.55;;;5.33;92.22
64211;BME280;73293;48.538;14.354;2023-10-19T01:12:58;92493.88;;;5.32;92.35
64211;BME280;73293;48.538;14.354;2023-10-19T01:14:20;92494.57;;;5.34;92.50
64211;BME280;73293;48.538;14.354;2023-10-19T01:15:17;92492.16;;;5.33;92.14
64211;BME280;73293;48.538;14.354;2023-10-19T01:15:51;92491.48;;;5.33;92.32
64211;BME280;73293;48.538;14.354;2023-10-19T01:16:25;92486.84;;;5.32;92.49
64211;BME280;73293;48.538;14.354;2023-10-19T01:17:01;92494.00;;;5.33;92.68
64211;BME280;73293;48.538;14.354;2023-10-19T01:17:50;92484.84;;;5.34;92.80
64211;BME280;73293;48.538;14.354;2023-10-19T01:18:32;92489.70;;;5.35;92.23
64211;BME280;73293;48.538;14.354;2023-10-19T01:19:11;92488.88;;;5.33;94.30
64211;BME280;73293;48.538;14.354;2023-10-19T01:19:45;92487.42;;;5.33;94.25
64211;BME280;73293;48.538;14.354;2023-10-19T01:20:27;92483.92;;;5.31;93.68
64211;BME280;73293;48.538;14.354;2023-10-19T01:21:53;92486.73;;;5.36;93.63
64211;BME280;73293;48.538;14.354;2023-10-19T01:22:34;92484.73;;;5.34;93.63
64211;BME280;73293;48.538;14.354;2023-10-19T01:23:10;92483.00;;;5.33;93.47
64211;BME280;73293;48.538;14.354;2023-10-19T01:23:45;92483.58;;;5.33;93.64
64211;BME280;73293;48.538;14.354;2023-10-19T01:24:19;92483.02;;;5.34;93.22
64211;BME280;73293;48.538;14.354;2023-10-19T01:26:30;92480.16;;;5.38;93.21
64211;BME280;73293;48.538;14.354;2023-10-19T01:27:04;92478.03;;;5.38;93.10
64211;BME280;73293;48.538;14.354;2023-10-19T01:27:48;92478.67;;;5.40;93.01
64211;BME280;73293;48.538;14.354;2023-10-19T01:28:31;92478.90;;;5.41;92.75
64211;BME280;73293;48.538;14.354;2023-10-19T01:29:24;92475.58;;;5.43;93.09
64211;BME280;73293;48.538;14.354;2023-10-19T01:30:01;92479.42;;;5.43;93.26
64211;BME280;73293;48.538;14.354;2023-10-19T01:30:40;92476.05;;;5.44;93.37
64211;BME280;73293;48.538;14.354;2023-10-19T01:31:19;92475.90;;;5.45;93.52
64211;BME280;73293;48.538;14.354;2023-10-19T01:32:04;92472.58;;;5.46;93.36
64211;BME280;73293;48.538;14.354;2023-10-19T01:33:13;92468.29;;;5.50;93.17
64211;BME280;73293;48.538;14.354;2023-10-19T01:33:50;92467.59;;;5.48;93.16
64211;BME280;73293;48.538;14.354;2023-10-19T01:34:27;92467.65;;;5.49;92.77
64211;BME280;73293;48.538;14.354;2023-10-19T01:35:02;92470.86;;;5.52;92.56
64211;BME280;73293;48.538;14.354;2023-10-19T01:35:36;92472.42;;;5.52;92.58
64211;BME280;73293;48.538;14.354;2023-10-19T01:36:49;92466.61;;;5.55;92.82
64211;BME280;73293;48.538;14.354;2023-10-19T01:37:31;92467.95;;;5.53;92.93
64211;BME280;73293;48.538;14.354;2023-10-19T01:38:08;92469.97;;;5.54;92.82
64211;BME280;73293;48.538;14.354;2023-10-19T01:38:42;92467.11;;;5.54;92.63
64211;BME280;73293;48.538;14.354;2023-10-19T01:39:17;92470.47;;;5.57;92.41
64211;BME280;73293;48.538;14.354;2023-10-19T01:40:30;92470.24;;;5.60;92.77
64211;BME280;73293;48.538;14.354;2023-10-19T01:41:08;92470.86;;;5.58;93.04
64211;BME280;73293;48.538;14.354;2023-10-19T01:41:52;92467.48;;;5.61;92.42
64211;BME280;73293;48.538;14.354;2023-10-19T01:42:25;92467.42;;;5.61;92.22
64211;BME280;73293;48.538;14.354;2023-10-19T01:42:59;92469.47;;;5.63;92.14
64211;BME280;73293;48.538;14.354;2023-10-19T01:43:33;92467.23;;;5.63;92.03
64211;BME280;73293;48.538;14.354;2023-10-19T01:44:21;92468.44;;;5.64;92.06
64211;BME280;73293;48.538;14.354;2023-10-19T01:44:55;92468.60;;;5.64;92.16
64211;BME280;73293;48.538;14.354;2023-10-19T01:45:34;92467.20;;;5.64;92.33
64211;BME280;73293;48.538;14.354;2023-10-19T01:46:11;92461.41;;;5.63;92.24
64211;BME280;73293;48.538;14.354;2023-10-19T01:46:45;92463.60;;;5.63;92.18
64211;BME280;73293;48.538;14.354;2023-10-19T01:47:55;92459.52;;;5.64;92.34
64211;BME280;73293;48.538;14.354;2023-10-19T01:48:32;92452.27;;;5.60;92.32
64211;BME280;73293;48.538;14.354;2023-10-19T01:49:12;92447.23;;;5.56;92.39
64211;BME280;73293;48.538;14.354;2023-10-19T01:49:46;92456.73;;;5.64;92.64
64211;BME280;73293;48.538;14.354;2023-10-19T01:50:40;92457.48;;;5.62;92.72
64211;BME280;73293;48.538;14.354;2023-10-19T01:51:48;92454.34;;;5.60;92.63
64211;BME280;73293;48.538;14.354;2023-10-19T01:52:24;92456.20;;;5.58;92.59
64211;BME280;73293;48.538;14.354;2023-10-19T01:53:00;92453.27;;;5.57;92.64
64211;BME280;73293;48.538;14.354;2023-10-19T01:53:37;92450.10;;;5.57;92.50
64211;BME280;73293;48.538;14.354;2023-10-19T01:54:16;92451.14;;;5.57;92.34
64211;BME280;73293;48.538;14.354;2023-10-19T01:55:38;92451.35;;;5.59;92.30
64211;BME280;73293;48.538;14.354;2023-10-19T01:56:13;92452.77;;;5.58;92.23
64211;BME280;73293;48.538;14.354;2023-10-19T01:56:49;92450.56;;;5.57;92.16
64211;BME280;73293;48.538;14.354;2023-10-19T01:57:25;92447.33;;;5.57;92.11
64211;BME280;73293;48.538;14.354;2023-10-19T01:57:59;92448.25;;;5.55;92.11
64211;BME280;73293;48.538;14.354;2023-10-19T01:59:09;92442.80;;;5.56;92.20
64211;BME280;73293;48.538;14.354;2023-10-19T01:59:54;92441.95;;;5.53;92.15
64211;BME280;73293;48.538;14.354;2023-10-19T02:03:47;92443.59;;;5.51;91.85
64211;BME280;73293;48.538;14.354;2023-10-19T02:04:25;92443.55;;;5.45;91.85
64211;BME280;73293;48.538;14.354;2023-10-19T02:05:01;92447.75;;;5.44;91.83
64211;BME280;73293;48.538;14.354;2023-10-19T02:05:40;92439.11;;;5.38;92.17
64211;BME280;73293;48.538;14.354;2023-10-19T02:06:16;92440.87;;;5.37;92.03
64211;BME280;73293;48.538;14.354;2023-10-19T02:18:18;92437.09;;;5.20;93.08
64211;BME280;73293;48.538;14.354;2023-10-19T02:19:00;92432.66;;;5.14;93.05
64211;BME280;73293;48.538;14.354;2023-10-19T02:19:37;92432.67;;;5.15;92.98
64211;BME280;73293;48.538;14.354;2023-10-19T02:20:15;92431.78;;;5.14;92.95
64211;BME280;73293;48.538;14.354;2023-10-19T02:21:23;92427.31;;;5.14;92.87
64211;BME280;73293;48.538;14.354;2023-10-19T02:22:01;92421.06;;;5.08;92.91
64211;BME280;73293;48.538;14.354;2023-10-19T02:22:42;92407.30;;;5.02;92.72
64211;BME280;73293;48.538;14.354;2023-10-19T02:23:24;92418.70;;;5.08;92.81
64211;BME280;73293;48.538;14.354;2023-10-19T02:24:01;92424.20;;;5.10;92.81
64211;BME280;73293;48.538;14.354;2023-10-19T02:25:02;92415.49;;;5.09;92.77
64211;BME280;73293;48.538;14.354;2023-10-19T02:25:41;92421.52;;;5.09;92.71
64211;BME280;73293;48.538;14.354;2023-10-19T02:26:17;92423.62;;;5.10;92.83
64211;BME280;73293;48.538;14.354;2023-10-19T02:26:54;92423.50;;;5.12;92.99
64211;BME280;73293;48.538;14.354;2023-10-19T02:27:28;92422.68;;;5.09;92.82
64211;BME280;73293;48.538;14.354;2023-10-19T02:28:41;92421.10;;;5.07;92.69
64211;BME280;73293;48.538;14.354;2023-10-19T02:29:24;92418.63;;;5.04;92.73
64211;BME280;73293;48.538;14.354;2023-10-19T02:30:01;92413.01;;;5.03;92.73
64211;BME280;73293;48.538;14.354;2023-10-19T02:30:35;92412.61;;;5.01;92.66
64211;BME280;73293;48.538;14.354;2023-10-19T02:31:09;92410.30;;;4.99;92.69
64211;BME280;73293;48.538;14.354;2023-10-19T02:32:27;92406.10;;;4.93;92.71
64211;BME280;73293;48.538;14.354;2023-10-19T02:33:01;92407.86;;;4.94;92.67
64211;BME280;73293;48.538;14.354;2023-10-19T02:33:41;92407.74;;;4.92;92.66
64211;BME280;73293;48.538;14.354;2023-10-19T02:34:23;92410.73;;;4.89;92.65
64211;BME280;73293;48.538;14.354;2023-10-19T02:34:57;92406.73;;;4.88;92.82
64211;BME280;73293;48.538;14.354;2023-10-19T02:36:02;92407.92;;;4.89;92.81
64211;BME280;73293;48.538;14.354;2023-10-19T02:36:43;92411.73;;;4.84;92.88
64211;BME280;73293;48.538;14.354;2023-10-19T02:37:19;92410.02;;;4.79;92.98
64211;BME280;73293;48.538;14.354;2023-10-19T02:37:53;92412.36;;;4.79;92.92
64211;BME280;73293;48.538;14.354;2023-10-19T02:38:29;92413.64;;;4.78;92.72
64211;BME280;73293;48.538;14.354;2023-10-19T02:39:38;92404.45;;;4.75;92.59
64211;BME280;73293;48.538;14.354;2023-10-19T02:40:55;92405.52;;;4.73;92.60
64211;BME280;73293;48.538;14.354;2023-10-19T02:42:30;92396.52;;;4.67;92.93
64211;BME280;73293;48.538;14.354;2023-10-19T02:45:22;92379.25;;;4.45;92.33
64211;BME280;73293;48.538;14.354;2023-10-19T02:46:26;92397.70;;;4.54;92.47
64211;BME280;73293;48.538;14.354;2023-10-19T02:48:25;92393.52;;;4.52;92.95
64211;BME280;73293;48.538;14.354;2023-10-19T02:49:03;92392.90;;;4.52;92.93
64211;BME280;73293;48.538;14.354;2023-10-19T02:49:41;92393.75;;;4.54;93.27
64211;BME280;73293;48.538;14.354;2023-10-19T02:50:17;92390.86;;;4.57;93.08
64211;BME280;73293;48.538;14.354;2023-10-19T02:50:56;92393.61;;;4.56;93.29
64211;BME280;73293;48.538;14.354;2023-10-19T02:52:07;92390.41;;;4.60;92.90
64211;BME280;73293;48.538;14.354;2023-10-19T02:52:41;92387.02;;;4.57;92.63
64211;BME280;73293;48.538;14.354;2023-10-19T02:53:17;92388.47;;;4.57;92.62
64211;BME280;73293;48.538;14.354;2023-10-19T02:53:52;92381.39;;;4.51;92.42
64211;BME280;73293;48.538;14.354;2023-10-19T02:54:26;92388.25;;;4.56;92.23
64211;BME280;73293;48.538;14.354;2023-10-19T02:55:43;92389.86;;;4.54;91.66
64211;BME280;73293;48.538;14.354;2023-10-19T02:56:18;92386.06;;;4.51;91.87
64211;BME280;73293;48.538;14.354;2023-10-19T02:56:53;92390.71;;;4.54;92.07
64211;BME280;73293;48.538;14.354;2023-10-19T02:57:30;92391.67;;;4.56;92.11
64211;BME280;73293;48.538;14.354;2023-10-19T02:58:06;92390.06;;;4.55;92.07
64211;BME280;73293;48.538;14.354;2023-10-19T02:59:28;92392.61;;;4.51;92.16
64211;BME280;73293;48.538;14.354;2023-10-19T03:00:04;92388.88;;;4.45;92.22
64211;BME280;73293;48.538;14.354;2023-10-19T03:00:46;92388.10;;;4.42;92.53
64211;BME280;73293;48.538;14.354;2023-10-19T03:01:32;92387.99;;;4.42;92.56
64211;BME280;73293;48.538;14.354;2023-10-19T03:02:08;92386.00;;;4.40;92.92
64211;BME280;73293;48.538;14.354;2023-10-19T03:03:09;92382.27;;;4.41;92.39
64211;BME280;73293;48.538;14.354;2023-10-19T03:03:47;92384.12;;;4.34;91.56
64211;BME280;73293;48.538;14.354;2023-10-19T03:04:25;92375.25;;;4.21;91.10
64211;BME280;73293;48.538;14.354;2023-10-19T03:04:59;92382.69;;;4.21;91.06
64211;BME280;73293;48.538;14.354;2023-10-19T03:05:36;92382.91;;;4.18;91.39
64211;BME280;73293;48.538;14.354;2023-10-19T03:06:57;92385.27;;;4.15;91.81
64211;BME280;73293;48.538;14.354;2023-10-19T03:07:33;92381.63;;;4.10;92.07
64211;BME280;73293;48.538;14.354;2023-10-19T03:08:09;92381.27;;;4.11;91.95
64211;BME280;73293;48.538;14.354;2023-10-19T03:08:46;92377.22;;;4.07;92.04
64211;BME280;73293;48.538;14.354;2023-10-19T03:09:19;92378.63;;;4.12;92.19
64211;BME280;73293;48.538;14.354;2023-10-19T03:10:28;92379.79;;;4.10;92.24
64211;BME280;73293;48.538;14.354;2023-10-19T03:11:15;92378.14;;;4.05;92.36
64211;BME280;73293;48.538;14.354;2023-10-19T03:11:50;92375.91;;;4.05;92.53
64211;BME280;73293;48.538;14.354;2023-10-19T03:12:30;92376.34;;;4.04;93.48
64211;BME280;73293;48.538;14.354;2023-10-19T03:13:04;92375.32;;;4.09;93.35
64211;BME280;73293;48.538;14.354;2023-10-19T03:14:01;92378.86;;;4.14;93.16
64211;BME280;73293;48.538;14.354;2023-10-19T03:14:40;92370.14;;;4.10;92.98
64211;BME280;73293;48.538;14.354;2023-10-19T03:15:23;92376.39;;;4.16;93.02
64211;BME280;73293;48.538;14.354;2023-10-19T03:15:57;92375.09;;;4.16;92.90
64211;BME280;73293;48.538;14.354;2023-10-19T03:16:32;92373.45;;;4.20;92.94
64211;BME280;73293;48.538;14.354;2023-10-19T03:17:44;92374.00;;;4.23;92.61
64211;BME280;73293;48.538;14.354;2023-10-19T03:18:21;92371.73;;;4.18;92.68
64211;BME280;73293;48.538;14.354;2023-10-19T03:18:56;92373.07;;;4.19;92.75
64211;BME280;73293;48.538;14.354;2023-10-19T03:19:34;92371.52;;;4.18;92.79
64211;BME280;73293;48.538;14.354;2023-10-19T03:20:11;92372.15;;;4.18;92.77
64211;BME280;73293;48.538;14.354;2023-10-19T03:21:22;92370.61;;;4.21;93.16
64211;BME280;73293;48.538;14.354;2023-10-19T03:22:05;92365.29;;;4.20;93.11
64211;BME280;73293;48.538;14.354;2023-10-19T03:22:39;92370.39;;;4.25;93.33
64211;BME280;73293;48.538;14.354;2023-10-19T03:23:13;92371.13;;;4.21;93.52
64211;BME280;73293;48.538;14.354;2023-10-19T03:23:47;92366.27;;;4.20;93.37
64211;BME280;73293;48.538;14.354;2023-10-19T03:24:59;92367.77;;;4.28;93.62
64211;BME280;73293;48.538;14.354;2023-10-19T03:25:52;92368.36;;;4.29;93.64
64211;BME280;73293;48.538;14.354;2023-10-19T03:26:34;92368.36;;;4.30;93.63
64211;BME280;73293;48.538;14.354;2023-10-19T03:27:13;92365.41;;;4.31;93.57
64211;BME280;73293;48.538;14.354;2023-10-19T03:27:57;92366.71;;;4.35;93.62
64211;BME280;73293;48.538;14.354;2023-10-19T03:28:50;92364.71;;;4.42;93.44
64211;BME280;73293;48.538;14.354;2023-10-19T03:29:30;92365.41;;;4.42;93.36
64211;BME280;73293;48.538;14.354;2023-10-19T03:30:14;92362.38;;;4.44;93.27
64211;BME280;73293;48.538;14.354;2023-10-19T03:30:49;92366.06;;;4.48;93.25
64211;BME280;73293;48.538;14.354;2023-10-19T03:31:24;92362.34;;;4.49;93.15
64211;BME280;73293;48.538;14.354;2023-10-19T03:32:42;92363.85;;;4.58;93.17
64211;BME280;73293;48.538;14.354;2023-10-19T03:33:23;92361.48;;;4.60;92.90
64211;BME280;73293;48.538;14.354;2023-10-19T03:34:00;92366.37;;;4.64;92.68
64211;BME280;73293;48.538;14.354;2023-10-19T03:34:40;92366.59;;;4.65;92.70
64211;BME280;73293;48.538;14.354;2023-10-19T03:35:17;92365.19;;;4.65;92.59
64211;BME280;73293;48.538;14.354;2023-10-19T03:36:17;92363.89;;;4.66;92.35
64211;BME280;73293;48.538;14.354;2023-10-19T03:36:58;92363.28;;;4.63;92.37
64211;BME280;73293;48.538;14.354;2023-10-19T03:37:55;92361.73;;;4.69;92.22
64211;BME280;73293;48.538;14.354;2023-10-19T03:38:38;92362.73;;;4.69;92.07
64211;BME280;73293;48.538;14.354;2023-10-19T03:39:14;92363.70;;;4.69;92.08
64211;BME280;73293;48.538;14.354;2023-10-19T03:40:16;92362.67;;;4.76;91.99
64211;BME280;73293;48.538;14.354;2023-10-19T03:41:05;92357.29;;;4.73;92.03
64211;BME280;73293;48.538;14.354;2023-10-19T03:41:48;92361.08;;;4.78;91.84
64211;BME280;73293;48.538;14.354;2023-10-19T03:42:25;92359.95;;;4.80;91.72
64211;BME280;73293;48.538;14.354;2023-10-19T03:43:14;92356.83;;;4.79;91.70
64211;BME280;73293;48.538;14.354;2023-10-19T03:44:08;92358.87;;;4.82;91.69
64211;BME280;73293;48.538;14.354;2023-10-19T03:45:09;92350.93;;;4.78;91.66
64211;BME280;73293;48.538;14.354;2023-10-19T03:45:50;92359.24;;;4.88;91.31
64211;BME280;73293;48.538;14.354;2023-10-19T03:46:33;92357.98;;;4.92;91.15
64211;BME280;73293;48.538;14.354;2023-10-19T03:47:12;92354.34;;;4.95;90.72
64211;BME280;73293;48.538;14.354;2023-10-19T03:48:00;92358.38;;;4.99;90.71
64211;BME280;73293;48.538;14.354;2023-10-19T03:48:40;92357.66;;;4.99;90.79
64211;BME280;73293;48.538;14.354;2023-10-19T03:49:29;92356.72;;;4.98;90.73
64211;BME280;73293;48.538;14.354;2023-10-19T03:50:19;92355.39;;;5.00;90.66
64211;BME280;73293;48.538;14.354;2023-10-19T03:50:57;92357.88;;;5.01;90.94
64211;BME280;73293;48.538;14.354;2023-10-19T03:51:50;92356.23;;;5.03;91.06
64211;BME280;73293;48.538;14.354;2023-10-19T03:52:35;92353.55;;;4.99;91.04
64211;BME280;73293;48.538;14.354;2023-10-19T03:53:18;92353.10;;;4.97;91.08
64211;BME280;73293;48.538;14.354;2023-10-19T03:53:59;92352.23;;;4.97;91.10
64211;BME280;73293;48.538;14.354;2023-10-19T03:54:35;92352.83;;;4.99;91.07
64211;BME280;73293;48.538;14.354;2023-10-19T03:55:44;92347.47;;;5.00;91.15
64211;BME280;73293;48.538;14.354;2023-10-19T03:56:22;92344.79;;;4.97;91.16
64211;BME280;73293;48.538;14.354;2023-10-19T03:56:58;92344.42;;;4.97;90.88
64211;BME280;73293;48.538;14.354;2023-10-19T03:57:39;92345.86;;;4.93;90.83
64211;BME280;73293;48.538;14.354;2023-10-19T03:58:26;92339.70;;;4.91;90.79
64211;BME280;73293;48.538;14.354;2023-10-19T03:59:39;92346.77;;;4.97;90.87
64211;BME280;73293;48.538;14.354;2023-10-19T04:01:19;92343.52;;;4.94;90.87
64211;BME280;73293;48.538;14.354;2023-10-19T04:02:43;92340.35;;;4.90;90.91
64211;BME280;73293;48.538;14.354;2023-10-19T04:04:11;92342.61;;;4.87;90.68
64211;BME280;73293;48.538;14.354;2023-10-19T04:04:48;92340.15;;;4.83;90.88
64211;BME280;73293;48.538;14.354;2023-10-19T04:05:33;92341.13;;;4.82;90.86
64211;BME280;73293;48.538;14.354;2023-10-19T04:06:11;92339.11;;;4.83;90.99
64211;BME280;73293;48.538;14.354;2023-10-19T04:06:50;92333.52;;;4.79;90.95
64211;BME280;73293;48.538;14.354;2023-10-19T04:08:13;92337.15;;;4.85;90.96
64211;BME280;73293;48.538;14.354;2023-10-19T04:09:26;92333.53;;;4.83;90.93
64211;BME280;73293;48.538;14.354;2023-10-19T04:11:03;92321.11;;;4.80;90.89
64211;BME280;73293;48.538;14.354;2023-10-19T04:12:29;92333.30;;;4.93;90.84
64211;BME280;73293;48.538;14.354;2023-10-19T04:13:06;92332.10;;;4.93;90.82
64211;BME280;73293;48.538;14.354;2023-10-19T04:13:49;92329.74;;;4.98;90.69
64211;BME280;73293;48.538;14.354;2023-10-19T04:14:29;92332.95;;;4.97;90.52
64211;BME280;73293;48.538;14.354;2023-10-19T04:15:06;92330.10;;;4.98;90.38
64211;BME280;73293;48.538;14.354;2023-10-19T04:16:15;92328.67;;;4.94;90.03
64211;BME280;73293;48.538;14.354;2023-10-19T04:16:49;92331.04;;;4.91;90.05
64211;BME280;73293;48.538;14.354;2023-10-19T04:17:25;92328.30;;;4.91;89.69
64211;BME280;73293;48.538;14.354;2023-10-19T04:18:04;92327.65;;;4.89;89.41
64211;BME280;73293;48.538;14.354;2023-10-19T04:18:47;92329.55;;;4.85;89.08
64211;BME280;73293;48.538;14.354;2023-10-19T04:19:22;92329.94;;;4.83;88.92
64211;BME280;73293;48.538;14.354;2023-10-19T04:30:38;92312.13;;;4.45;90.38
64211;BME280;73293;48.538;14.354;2023-10-19T04:31:11;92308.93;;;4.36;90.94